createdAt,value
2019-03-26T00:00:09.361Z,91.40
2019-03-26T00:02:37.748Z,91.70
2019-03-26T00:05:06.198Z,91.60
2019-03-26T00:07:35.155Z,90.90
2019-03-26T00:10:04.108Z,90.90
2019-03-26T00:12:32.596Z,91.50
2019-03-26T00:15:00.968Z,90.90
2019-03-26T00:17:29.360Z,91.90
2019-03-26T00:19:57.808Z,91.00
2019-03-26T00:22:26.214Z,90.70
2019-03-26T00:24:54.610Z,90.60
2019-03-26T00:27:22.996Z,90.80
2019-03-26T00:29:51.392Z,90.90
2019-03-26T00:32:19.760Z,90.60
2019-03-26T00:34:48.148Z,87.20
2019-03-26T00:37:16.552Z,88.80
2019-03-26T00:39:44.958Z,89.50
2019-03-26T00:42:13.317Z,90.70
2019-03-26T00:44:41.718Z,90.20
2019-03-26T00:47:10.088Z,88.10
2019-03-26T00:49:38.484Z,90.50
2019-03-26T00:52:06.865Z,90.80
2019-03-26T00:54:35.533Z,88.90
2019-03-26T00:57:03.916Z,88.60
2019-03-26T00:59:32.322Z,91.80
2019-03-26T01:02:00.765Z,89.00
2019-03-26T01:04:32.965Z,89.90
2019-03-26T01:06:59.260Z,87.70
2019-03-26T01:09:27.651Z,88.50
2019-03-26T01:11:56.025Z,89.50
2019-03-26T01:14:24.412Z,87.20
2019-03-26T01:16:52.799Z,90.30
2019-03-26T01:19:21.188Z,89.10
2019-03-26T01:21:49.576Z,90.00
2019-03-26T01:24:17.979Z,91.50
2019-03-26T01:26:46.353Z,90.70
2019-03-26T01:29:14.740Z,87.60
2019-03-26T01:31:43.131Z,87.90
2019-03-26T01:34:11.521Z,90.10
2019-03-26T01:36:39.901Z,90.80
2019-03-26T01:39:08.288Z,89.70
2019-03-26T01:41:36.693Z,91.80
2019-03-26T01:44:05.116Z,91.20
2019-03-26T01:46:33.496Z,91.50
2019-03-26T01:49:01.892Z,94.30
2019-03-26T01:51:30.291Z,93.10
2019-03-26T01:53:58.668Z,92.50
2019-03-26T01:56:27.052Z,93.30
2019-03-26T01:58:55.453Z,93.30
2019-03-26T02:01:23.849Z,92.80
2019-03-26T02:03:52.259Z,93.40
2019-03-26T02:06:20.645Z,93.80
2019-03-26T02:08:49.040Z,92.80
2019-03-26T02:11:17.412Z,91.90
2019-03-26T02:13:45.804Z,91.50
2019-03-26T02:16:14.188Z,89.70
2019-03-26T02:18:42.586Z,88.70
2019-03-26T02:21:10.959Z,89.10
2019-03-26T02:23:39.363Z,90.30
2019-03-26T02:26:07.755Z,91.10
2019-03-26T02:28:36.159Z,91.30
2019-03-26T02:31:04.576Z,90.80
2019-03-26T02:33:33.239Z,90.30
2019-03-26T02:36:01.622Z,91.50
2019-03-26T02:38:30.018Z,92.60
2019-03-26T02:40:58.633Z,92.80
2019-03-26T02:43:27.026Z,92.60
2019-03-26T02:45:55.475Z,94.10
2019-03-26T02:48:23.883Z,93.00
2019-03-26T02:50:52.389Z,91.30
2019-03-26T02:53:20.790Z,90.00
2019-03-26T02:55:49.177Z,89.80
2019-03-26T02:58:17.565Z,90.80
2019-03-26T03:00:45.946Z,90.70
2019-03-26T03:03:14.588Z,93.20
2019-03-26T03:05:42.965Z,90.70
2019-03-26T03:08:11.360Z,90.70
2019-03-26T03:10:39.736Z,90.90
2019-03-26T03:13:08.145Z,92.90
2019-03-26T03:15:36.542Z,91.50
2019-03-26T03:18:05.003Z,91.10
2019-03-26T03:20:33.375Z,91.30
2019-03-26T03:23:02.021Z,92.20
2019-03-26T03:25:30.391Z,91.30
2019-03-26T03:27:58.861Z,91.50
2019-03-26T03:30:27.252Z,91.30
2019-03-26T03:32:55.637Z,91.50
2019-03-26T03:35:24.039Z,91.80
2019-03-26T03:37:52.648Z,92.80
2019-03-26T03:40:21.118Z,91.60
2019-03-26T03:42:49.501Z,91.60
2019-03-26T03:45:20.972Z,92.10
2019-03-26T03:47:49.485Z,92.00
2019-03-26T03:50:17.881Z,92.80
2019-03-26T03:52:47.106Z,92.50
2019-03-26T03:55:16.163Z,92.40
2019-03-26T03:57:46.889Z,92.30
2019-03-26T04:00:36.185Z,92.00
2019-03-26T04:03:05.411Z,92.00
2019-03-26T04:05:34.747Z,92.10
2019-03-26T04:08:03.290Z,92.50
2019-03-26T04:10:31.769Z,93.00
2019-03-26T04:13:00.162Z,93.00
2019-03-26T04:15:28.553Z,92.30
2019-03-26T04:17:56.938Z,92.40
2019-03-26T04:20:25.321Z,92.10
2019-03-26T04:22:53.700Z,92.70
2019-03-26T04:25:22.091Z,92.30
2019-03-26T04:27:50.470Z,92.40
2019-03-26T04:30:27.036Z,92.60
2019-03-26T04:32:55.415Z,93.20
2019-03-26T04:35:23.845Z,93.20
2019-03-26T04:37:52.251Z,93.60
2019-03-26T04:40:20.642Z,93.30
2019-03-26T04:42:49.265Z,92.90
2019-03-26T04:45:17.650Z,92.50
2019-03-26T04:47:46.285Z,92.80
2019-03-26T04:50:14.681Z,92.60
2019-03-26T04:52:43.055Z,92.70
2019-03-26T04:55:11.445Z,92.80
2019-03-26T04:57:39.840Z,92.30
2019-03-26T05:00:08.776Z,92.10
2019-03-26T05:02:37.165Z,92.20
2019-03-26T05:05:06.622Z,92.50
2019-03-26T05:07:35.012Z,92.40
2019-03-26T05:10:04.460Z,92.70
2019-03-26T05:12:32.840Z,92.30
2019-03-26T05:15:01.236Z,93.00
2019-03-26T05:17:29.628Z,92.30
2019-03-26T05:19:58.015Z,92.70
2019-03-26T05:22:26.623Z,92.50
2019-03-26T05:24:55.029Z,92.40
2019-03-26T05:27:23.408Z,92.40
2019-03-26T05:29:51.792Z,92.20
2019-03-26T05:32:20.180Z,92.10
2019-03-26T05:34:48.569Z,92.20
2019-03-26T05:37:16.988Z,92.20
2019-03-26T05:39:45.389Z,92.00
2019-03-26T05:42:13.776Z,92.60
2019-03-26T05:44:42.160Z,92.10
2019-03-26T05:47:10.540Z,92.40
2019-03-26T05:49:38.945Z,91.90
2019-03-26T05:52:07.319Z,91.90
2019-03-26T05:54:35.716Z,91.80
2019-03-26T05:57:04.333Z,91.80
2019-03-26T05:59:32.732Z,91.80
2019-03-26T06:02:13.472Z,91.80
2019-03-26T06:04:31.236Z,91.70
2019-03-26T06:07:05.105Z,91.90
2019-03-26T06:09:29.768Z,91.80
2019-03-26T06:11:58.148Z,91.90
2019-03-26T06:14:26.541Z,92.40
2019-03-26T06:16:54.938Z,92.80
2019-03-26T06:19:23.331Z,92.20
2019-03-26T06:21:52.016Z,92.70
2019-03-26T06:24:20.408Z,92.60
2019-03-26T06:26:48.785Z,91.70
2019-03-26T06:29:17.165Z,91.90
2019-03-26T06:31:45.560Z,92.00
2019-03-26T06:34:13.933Z,93.00
2019-03-26T06:36:42.602Z,93.40
2019-03-26T06:39:10.967Z,92.00
2019-03-26T06:41:39.355Z,91.30
2019-03-26T06:44:07.748Z,91.20
2019-03-26T06:46:36.123Z,90.80
2019-03-26T06:49:04.588Z,91.50
2019-03-26T06:51:33.136Z,91.20
2019-03-26T06:54:01.516Z,90.90
2019-03-26T06:56:29.907Z,90.90
2019-03-26T06:58:58.300Z,90.30
2019-03-26T07:01:26.684Z,89.60
2019-03-26T07:03:55.137Z,89.50
2019-03-26T07:06:23.532Z,88.90
2019-03-26T07:08:51.938Z,88.50
2019-03-26T07:11:20.295Z,88.00
2019-03-26T07:13:48.674Z,87.90
2019-03-26T07:16:17.069Z,87.70
2019-03-26T07:18:45.775Z,87.40
2019-03-26T07:21:14.168Z,86.90
2019-03-26T07:23:42.550Z,86.40
2019-03-26T07:26:11.329Z,86.30
2019-03-26T07:28:39.703Z,86.10
2019-03-26T07:31:08.094Z,86.60
2019-03-26T07:33:36.468Z,86.50
2019-03-26T07:36:04.844Z,85.90
2019-03-26T07:38:33.240Z,86.70
2019-03-26T07:41:01.619Z,86.80
2019-03-26T07:43:30.008Z,86.00
2019-03-26T07:45:58.388Z,86.80
2019-03-26T07:48:26.792Z,87.50
2019-03-26T07:50:55.172Z,87.20
2019-03-26T07:53:23.556Z,86.90
2019-03-26T07:55:51.941Z,88.40
2019-03-26T07:58:20.678Z,88.80
2019-03-26T08:00:49.109Z,87.40
2019-03-26T08:03:17.489Z,88.00
2019-03-26T08:05:45.867Z,87.50
2019-03-26T08:08:14.296Z,87.60
2019-03-26T08:10:42.992Z,87.30
2019-03-26T08:13:11.423Z,85.80
2019-03-26T08:15:39.860Z,87.10
2019-03-26T08:18:08.259Z,86.80
2019-03-26T08:20:36.643Z,86.50
2019-03-26T08:23:05.036Z,85.00
2019-03-26T08:25:33.979Z,85.30
2019-03-26T08:28:05.050Z,82.50
2019-03-26T08:30:32.716Z,84.20
2019-03-26T08:33:01.487Z,83.20
2019-03-26T08:35:29.872Z,82.70
2019-03-26T08:38:11.312Z,79.70
2019-03-26T08:40:28.679Z,81.60
2019-03-26T08:42:57.088Z,85.00
2019-03-26T08:45:25.477Z,82.00
2019-03-26T08:47:53.857Z,81.30
2019-03-26T08:50:22.272Z,81.30
2019-03-26T08:52:50.721Z,83.50
2019-03-26T08:55:19.117Z,84.20
2019-03-26T08:57:47.516Z,83.30
2019-03-26T09:00:15.974Z,82.00
2019-03-26T09:02:44.365Z,81.70
2019-03-26T09:05:12.896Z,83.00
2019-03-26T09:07:41.576Z,81.20
2019-03-26T09:10:11.307Z,78.40
2019-03-26T09:12:39.919Z,73.80
2019-03-26T09:15:14.055Z,74.00
2019-03-26T09:17:44.118Z,75.30
2019-03-26T09:20:11.478Z,74.30
2019-03-26T09:22:39.869Z,73.30
2019-03-26T09:25:08.515Z,72.00
2019-03-26T09:27:36.913Z,72.30
2019-03-26T09:30:11.089Z,70.60
2019-03-26T09:32:40.051Z,72.90
2019-03-26T09:35:09.075Z,73.80
2019-03-26T09:37:37.476Z,77.10
2019-03-26T09:40:08.318Z,68.80
2019-03-26T09:42:37.144Z,65.00
2019-03-26T09:45:08.624Z,73.30
2019-03-26T09:47:37.378Z,66.40
2019-03-26T09:50:07.708Z,68.60
2019-03-26T09:52:36.168Z,66.00
2019-03-26T09:55:06.556Z,78.20
2019-03-26T09:57:36.140Z,67.10
2019-03-26T10:00:09.708Z,74.60
2019-03-26T10:02:38.086Z,75.20
2019-03-26T10:05:07.523Z,75.20
2019-03-26T10:07:35.899Z,79.40
2019-03-26T10:10:07.273Z,81.30
2019-03-26T10:12:35.657Z,74.30
2019-03-26T10:15:05.896Z,73.70
2019-03-26T10:17:34.285Z,79.50
2019-03-26T10:20:02.681Z,73.30
2019-03-26T10:22:31.060Z,67.60
2019-03-26T10:24:59.467Z,72.10
2019-03-26T10:27:27.848Z,71.20
2019-03-26T10:29:56.254Z,72.50
2019-03-26T10:32:24.647Z,72.50
2019-03-26T10:34:53.301Z,68.20
2019-03-26T10:37:21.976Z,74.50
2019-03-26T10:39:50.357Z,77.20
2019-03-26T10:42:18.748Z,72.40
2019-03-26T10:44:47.141Z,64.00
2019-03-26T10:47:15.532Z,69.00
2019-03-26T10:49:43.915Z,71.10
2019-03-26T10:52:12.315Z,78.50
2019-03-26T10:54:40.944Z,75.50
2019-03-26T10:57:09.341Z,74.60
2019-03-26T10:59:37.731Z,77.10
2019-03-26T11:02:06.392Z,78.00
2019-03-26T11:04:34.784Z,67.80
2019-03-26T11:07:03.184Z,74.50
2019-03-26T11:09:31.572Z,69.10
2019-03-26T11:12:00.441Z,70.30
2019-03-26T11:14:31.689Z,73.80
2019-03-26T11:16:59.237Z,75.30
2019-03-26T11:19:27.625Z,77.60
2019-03-26T11:21:56.025Z,68.40
2019-03-26T11:24:24.408Z,72.80
2019-03-26T11:26:53.064Z,77.10
2019-03-26T11:29:21.454Z,76.10
2019-03-26T11:31:49.860Z,68.90
2019-03-26T11:34:18.247Z,73.30
2019-03-26T11:36:46.648Z,62.40
2019-03-26T11:39:15.100Z,70.80
2019-03-26T11:41:43.491Z,76.00
2019-03-26T11:44:12.152Z,76.10
2019-03-26T11:46:40.540Z,70.50
2019-03-26T11:49:08.932Z,70.70
2019-03-26T11:51:37.328Z,67.20
2019-03-26T11:54:05.720Z,61.80
2019-03-26T11:56:34.127Z,76.60
2019-03-26T11:59:02.513Z,72.60
2019-03-26T12:01:30.912Z,65.20
2019-03-26T12:03:59.299Z,70.90
2019-03-26T12:06:27.704Z,58.00
2019-03-26T12:08:56.085Z,68.10
2019-03-26T12:11:24.487Z,68.60
2019-03-26T12:13:52.877Z,69.30
2019-03-26T12:16:21.278Z,70.80
2019-03-26T12:18:49.669Z,69.60
2019-03-26T12:21:18.068Z,67.60
2019-03-26T12:23:46.447Z,66.80
2019-03-26T12:26:14.853Z,66.80
2019-03-26T12:28:43.259Z,68.40
2019-03-26T12:31:11.668Z,64.40
2019-03-26T12:33:40.065Z,67.60
2019-03-26T12:36:08.518Z,61.60
2019-03-26T12:38:37.216Z,57.60
2019-03-26T12:41:05.680Z,52.10
2019-03-26T12:43:34.074Z,67.50
2019-03-26T12:46:02.460Z,67.80
2019-03-26T12:48:30.855Z,69.30
2019-03-26T12:50:59.232Z,65.50
2019-03-26T12:53:27.629Z,60.30
2019-03-26T12:55:56.013Z,68.30
2019-03-26T12:58:31.775Z,65.70
2019-03-26T13:00:54.541Z,64.10
2019-03-26T13:03:22.991Z,66.30
2019-03-26T13:05:51.437Z,61.00
2019-03-26T13:08:19.831Z,58.10
2019-03-26T13:10:53.826Z,64.50
2019-03-26T13:13:18.420Z,60.40
2019-03-26T13:15:47.132Z,65.80
2019-03-26T13:18:15.915Z,57.20
2019-03-26T13:20:44.320Z,66.00
2019-03-26T13:23:12.704Z,54.70
2019-03-26T13:25:41.092Z,56.70
2019-03-26T13:28:09.501Z,60.50
2019-03-26T13:30:37.967Z,55.20
2019-03-26T13:33:06.599Z,66.40
2019-03-26T13:35:35.291Z,63.10
2019-03-26T13:38:03.694Z,55.10
2019-03-26T13:40:32.086Z,64.10
2019-03-26T13:43:00.488Z,65.00
2019-03-26T13:45:28.864Z,50.10
2019-03-26T13:47:57.259Z,65.70
2019-03-26T13:50:25.675Z,56.60
2019-03-26T13:52:54.072Z,59.70
2019-03-26T13:55:22.456Z,61.40
2019-03-26T13:57:50.849Z,68.20
2019-03-26T14:00:22.311Z,53.20
2019-03-26T14:02:50.688Z,65.90
2019-03-26T14:05:24.184Z,64.60
2019-03-26T14:07:52.686Z,59.60
2019-03-26T14:10:21.260Z,61.40
2019-03-26T14:12:49.816Z,59.60
2019-03-26T14:15:18.216Z,64.50
2019-03-26T14:17:46.595Z,62.80
2019-03-26T14:20:16.235Z,64.40
2019-03-26T14:22:44.635Z,61.40
2019-03-26T14:25:13.600Z,64.30
2019-03-26T14:27:41.983Z,62.30
2019-03-26T14:30:11.921Z,62.00
2019-03-26T14:32:40.304Z,55.30
2019-03-26T14:35:09.373Z,58.90
2019-03-26T14:37:50.648Z,55.10
2019-03-26T14:40:08.252Z,60.70
2019-03-26T14:42:36.644Z,62.20
2019-03-26T14:45:07.551Z,63.00
2019-03-26T14:47:35.936Z,64.60
2019-03-26T14:50:06.597Z,52.40
2019-03-26T14:52:34.183Z,59.80
2019-03-26T14:55:02.585Z,63.40
2019-03-26T14:57:30.969Z,65.50
2019-03-26T14:59:59.374Z,63.70
2019-03-26T15:02:27.756Z,60.00
2019-03-26T15:04:56.158Z,52.00
2019-03-26T15:07:24.545Z,56.90
2019-03-26T15:09:52.944Z,51.70
2019-03-26T15:12:21.349Z,65.30
2019-03-26T15:14:49.771Z,60.50
2019-03-26T15:17:18.132Z,61.10
2019-03-26T15:19:46.528Z,57.10
2019-03-26T15:22:15.202Z,62.50
2019-03-26T15:24:43.594Z,60.00
2019-03-26T15:27:11.981Z,58.10
2019-03-26T15:29:40.448Z,60.10
2019-03-26T15:32:08.827Z,50.80
2019-03-26T15:34:37.232Z,63.10
2019-03-26T15:37:05.690Z,60.90
2019-03-26T15:39:34.093Z,58.00
2019-03-26T15:42:02.482Z,53.40
2019-03-26T15:44:30.872Z,57.00
2019-03-26T15:46:59.515Z,57.80
2019-03-26T15:49:27.908Z,54.00
2019-03-26T15:51:56.304Z,57.20
2019-03-26T15:54:24.684Z,52.60
2019-03-26T15:56:53.082Z,55.20
2019-03-26T15:59:21.468Z,53.70
2019-03-26T16:01:49.869Z,53.10
2019-03-26T16:04:18.531Z,60.20
2019-03-26T16:06:46.908Z,65.70
2019-03-26T16:09:15.304Z,55.30
2019-03-26T16:11:43.700Z,54.30
2019-03-26T16:14:12.087Z,54.50
2019-03-26T16:16:40.475Z,54.20
2019-03-26T16:19:08.856Z,57.90
2019-03-26T16:21:37.316Z,54.10
2019-03-26T16:24:05.912Z,55.00
2019-03-26T16:26:34.305Z,55.90
2019-03-26T16:29:03.003Z,60.90
2019-03-26T16:31:31.394Z,62.30
2019-03-26T16:33:59.778Z,57.40
2019-03-26T16:36:28.181Z,56.40
2019-03-26T16:38:56.567Z,68.80
2019-03-26T16:41:24.965Z,66.60
2019-03-26T16:43:53.351Z,67.40
2019-03-26T16:46:21.745Z,55.50
2019-03-26T16:48:50.136Z,55.10
2019-03-26T16:51:18.530Z,55.60
2019-03-26T16:53:46.920Z,57.00
2019-03-26T16:56:15.593Z,57.70
2019-03-26T16:58:43.989Z,58.50
2019-03-26T17:01:12.368Z,60.50
2019-03-26T17:03:40.757Z,57.80
2019-03-26T17:06:09.220Z,62.30
2019-03-26T17:08:37.608Z,62.30
2019-03-26T17:11:06.001Z,57.00
2019-03-26T17:13:34.384Z,57.50
2019-03-26T17:16:05.541Z,57.70
2019-03-26T17:18:32.878Z,58.20
2019-03-26T17:21:01.546Z,58.30
2019-03-26T17:23:29.933Z,58.50
2019-03-26T17:25:58.320Z,58.70
2019-03-26T17:28:26.714Z,58.60
2019-03-26T17:30:55.112Z,58.50
2019-03-26T17:33:23.496Z,67.00
2019-03-26T17:35:51.896Z,60.30
2019-03-26T17:38:20.288Z,60.30
2019-03-26T17:40:48.686Z,58.30
2019-03-26T17:43:17.077Z,58.90
2019-03-26T17:45:45.473Z,59.30
2019-03-26T17:48:13.869Z,58.90
2019-03-26T17:50:42.273Z,59.20
2019-03-26T17:53:10.902Z,58.90
2019-03-26T17:55:39.295Z,59.40
2019-03-26T17:58:07.972Z,59.30
2019-03-26T18:00:41.665Z,59.40
2019-03-26T18:03:10.356Z,59.40
2019-03-26T18:05:38.760Z,59.30
2019-03-26T18:08:07.225Z,59.60
2019-03-26T18:10:35.617Z,59.70
2019-03-26T18:13:04.002Z,59.90
2019-03-26T18:15:33.788Z,59.80
2019-03-26T18:18:02.173Z,60.20
2019-03-26T18:20:32.821Z,60.40
2019-03-26T18:23:00.676Z,61.20
2019-03-26T18:25:29.077Z,61.50
2019-03-26T18:27:57.758Z,60.80
2019-03-26T18:30:26.439Z,60.90
2019-03-26T18:32:55.097Z,61.50
2019-03-26T18:35:23.503Z,61.40
2019-03-26T18:37:51.933Z,61.30
2019-03-26T18:40:20.334Z,62.00
2019-03-26T18:42:49.621Z,62.20
2019-03-26T18:45:18.014Z,61.60
2019-03-26T18:47:46.404Z,61.90
2019-03-26T18:50:15.232Z,62.50
2019-03-26T18:52:43.620Z,62.20
2019-03-26T18:55:12.544Z,64.90
2019-03-26T18:57:40.937Z,63.80
2019-03-26T19:00:12.236Z,64.70
2019-03-26T19:02:40.653Z,64.40
2019-03-26T19:05:09.653Z,64.80
2019-03-26T19:07:38.044Z,65.20
2019-03-26T19:10:22.668Z,64.90
2019-03-26T19:12:56.835Z,66.10
2019-03-26T19:15:21.164Z,66.10
2019-03-26T19:17:49.558Z,66.50
2019-03-26T19:20:17.948Z,67.20
2019-03-26T19:22:46.336Z,66.90
2019-03-26T19:25:14.715Z,66.60
2019-03-26T19:27:43.124Z,66.70
2019-03-26T19:30:11.947Z,66.00
2019-03-26T19:32:40.346Z,66.30
2019-03-26T19:35:08.786Z,66.90
2019-03-26T19:37:37.172Z,67.90
2019-03-26T19:40:07.297Z,68.30
2019-03-26T19:42:36.085Z,67.90
2019-03-26T19:45:05.505Z,68.00
2019-03-26T19:47:33.904Z,67.60
2019-03-26T19:50:02.284Z,68.40
2019-03-26T19:52:30.669Z,67.80
2019-03-26T19:55:00.833Z,68.50
2019-03-26T19:57:29.228Z,68.50
2019-03-26T19:59:57.604Z,68.50
2019-03-26T20:02:26.303Z,69.40
2019-03-26T20:04:54.728Z,69.80
2019-03-26T20:07:23.122Z,69.10
2019-03-26T20:09:51.580Z,69.40
2019-03-26T20:12:19.975Z,69.90
2019-03-26T20:14:48.351Z,69.40
2019-03-26T20:17:16.740Z,70.40
2019-03-26T20:19:45.374Z,70.70
2019-03-26T20:22:13.770Z,70.70
2019-03-26T20:24:42.220Z,71.40
2019-03-26T20:27:10.622Z,71.80
2019-03-26T20:29:39.009Z,72.50
2019-03-26T20:32:07.417Z,71.40
2019-03-26T20:34:35.809Z,72.50
2019-03-26T20:37:04.273Z,71.80
2019-03-26T20:39:32.653Z,71.40
2019-03-26T20:42:01.056Z,71.70
2019-03-26T20:44:29.436Z,72.10
2019-03-26T20:46:58.073Z,72.50
2019-03-26T20:49:26.461Z,72.20
2019-03-26T20:51:54.855Z,73.20
2019-03-26T20:54:23.236Z,73.90
2019-03-26T20:56:52.013Z,74.10
2019-03-26T20:59:20.396Z,74.80
2019-03-26T21:01:48.784Z,74.10
2019-03-26T21:04:17.167Z,75.00
2019-03-26T21:06:45.791Z,75.60
2019-03-26T21:09:14.185Z,75.00
2019-03-26T21:11:42.584Z,74.70
2019-03-26T21:14:10.960Z,75.80
2019-03-26T21:16:39.420Z,75.40
2019-03-26T21:19:07.812Z,76.10
2019-03-26T21:21:36.207Z,76.00
2019-03-26T21:24:04.587Z,77.00
2019-03-26T21:26:32.989Z,75.90
2019-03-26T21:29:01.371Z,76.10
2019-03-26T21:31:29.765Z,76.70
2019-03-26T21:33:58.208Z,76.60
2019-03-26T21:36:26.610Z,77.30
2019-03-26T21:38:54.995Z,76.40
2019-03-26T21:41:23.376Z,77.20
2019-03-26T21:44:03.526Z,75.20
2019-03-26T21:46:21.872Z,76.20
2019-03-26T21:48:50.858Z,76.90
2019-03-26T21:51:19.240Z,78.50
2019-03-26T21:53:47.715Z,78.50
2019-03-26T21:56:16.097Z,80.20
2019-03-26T21:58:44.784Z,79.80
2019-03-26T22:01:13.168Z,79.10
2019-03-26T22:03:41.568Z,79.60
2019-03-26T22:06:09.948Z,79.50
2019-03-26T22:08:38.613Z,79.30
2019-03-26T22:11:06.988Z,79.20
2019-03-26T22:13:35.383Z,78.50
2019-03-26T22:16:03.768Z,77.70
2019-03-26T22:18:32.168Z,76.80
2019-03-26T22:21:00.544Z,79.30
2019-03-26T22:23:28.946Z,79.00
2019-03-26T22:25:57.580Z,78.30
2019-03-26T22:28:25.973Z,79.80
2019-03-26T22:30:54.352Z,79.30
2019-03-26T22:33:22.747Z,77.70
2019-03-26T22:35:51.125Z,80.80
2019-03-26T22:38:19.513Z,80.50
2019-03-26T22:40:47.888Z,79.70
2019-03-26T22:43:16.277Z,79.40
2019-03-26T22:45:44.656Z,78.40
2019-03-26T22:48:13.044Z,77.80
2019-03-26T22:50:41.420Z,78.10
2019-03-26T22:53:09.812Z,80.40
2019-03-26T22:55:38.185Z,79.40
2019-03-26T22:58:06.575Z,80.00
2019-03-26T23:00:36.031Z,78.10
2019-03-26T23:03:05.140Z,78.90
2019-03-26T23:05:33.522Z,78.50
2019-03-26T23:08:01.973Z,81.40
2019-03-26T23:10:30.355Z,80.50
2019-03-26T23:12:58.763Z,81.20
2019-03-26T23:15:28.416Z,80.30
2019-03-26T23:17:56.804Z,81.00
2019-03-26T23:20:25.200Z,81.10
2019-03-26T23:22:53.593Z,82.80
2019-03-26T23:25:21.980Z,82.60
2019-03-26T23:27:50.373Z,82.90
2019-03-26T23:30:18.830Z,83.50
2019-03-26T23:32:47.224Z,82.30
2019-03-26T23:35:15.681Z,83.20
2019-03-26T23:37:44.144Z,81.60
2019-03-26T23:40:12.964Z,82.10
2019-03-26T23:42:41.361Z,82.00
2019-03-26T23:45:10.304Z,81.20
2019-03-26T23:47:38.693Z,80.20
2019-03-26T23:50:09.016Z,83.00
2019-03-26T23:52:37.681Z,82.70
2019-03-26T23:55:07.707Z,80.50
2019-03-26T23:57:37.665Z,81.90
